createdAt,value
2023-05-08T00:02:17.533Z,20.22
2023-05-08T00:04:45.983Z,20.20
2023-05-08T00:07:13.789Z,20.19
2023-05-08T00:09:42.923Z,20.18
2023-05-08T00:12:11.316Z,20.15
2023-05-08T00:14:39.138Z,20.14
2023-05-08T00:17:06.965Z,20.13
2023-05-08T00:19:35.359Z,20.10
2023-05-08T00:22:03.116Z,20.07
2023-05-08T00:24:30.909Z,20.07
2023-05-08T00:27:00.105Z,20.05
2023-05-08T00:29:27.854Z,20.03
2023-05-08T00:31:55.729Z,20.00
2023-05-08T00:34:24.124Z,19.98
2023-05-08T00:36:51.898Z,19.95
2023-05-08T00:39:19.921Z,19.94
2023-05-08T00:41:48.201Z,19.92
2023-05-08T00:44:17.623Z,19.92
2023-05-08T00:46:46.621Z,19.89
2023-05-08T00:49:16.210Z,19.89
2023-05-08T00:51:46.220Z,19.89
2023-05-08T00:54:14.723Z,19.87
2023-05-08T00:56:42.981Z,19.86
2023-05-08T00:59:14.551Z,19.87
2023-05-08T01:01:45.418Z,19.88
2023-05-08T01:04:13.237Z,19.85
2023-05-08T01:06:41.112Z,19.85
2023-05-08T01:12:08.579Z,19.89
2023-05-08T01:14:46.442Z,19.89
2023-05-08T01:17:24.230Z,19.89
2023-05-08T01:20:06.336Z,19.89
2023-05-08T01:23:06.505Z,19.89
2023-05-08T01:26:12.157Z,19.91
2023-05-08T01:29:14.367Z,19.89
2023-05-08T01:31:56.020Z,19.90
2023-05-08T01:34:32.352Z,19.89
2023-05-08T01:37:04.487Z,19.87
2023-05-08T01:39:40.160Z,19.88
2023-05-08T01:42:15.659Z,19.85
2023-05-08T01:44:48.899Z,19.86
2023-05-08T01:47:18.756Z,19.84
2023-05-08T01:49:51.479Z,19.83
2023-05-08T01:52:24.214Z,19.81
2023-05-08T01:55:00.051Z,19.79
2023-05-08T01:57:30.655Z,19.76
2023-05-08T02:00:01.969Z,19.75
2023-05-08T02:02:33.336Z,19.74
2023-05-08T02:05:05.896Z,19.73
2023-05-08T02:07:38.443Z,19.72
2023-05-08T02:10:09.252Z,19.72
2023-05-08T02:12:40.519Z,19.72
2023-05-08T02:15:10.768Z,19.72
2023-05-08T02:17:41.887Z,19.71
2023-05-08T02:20:15.160Z,19.72
2023-05-08T02:22:46.189Z,19.71
2023-05-08T02:25:16.273Z,19.73
2023-05-08T02:27:47.419Z,19.71
2023-05-08T02:30:16.459Z,19.72
2023-05-08T02:32:45.289Z,19.71
2023-05-08T02:35:18.575Z,19.73
2023-05-08T02:37:48.938Z,19.73
2023-05-08T02:40:19.140Z,19.72
2023-05-08T02:42:47.749Z,19.73
2023-05-08T02:45:15.794Z,19.73
2023-05-08T02:47:49.153Z,19.75
2023-05-08T02:50:23.112Z,19.77
2023-05-08T02:52:54.118Z,19.77
2023-05-08T02:55:34.172Z,19.79
2023-05-08T02:58:12.481Z,19.80
2023-05-08T03:00:46.408Z,19.81
2023-05-08T03:03:21.290Z,19.81
2023-05-08T03:05:53.609Z,19.80
2023-05-08T03:08:27.575Z,19.80
2023-05-08T03:10:58.411Z,19.79
2023-05-08T03:13:29.187Z,19.72
2023-05-08T03:16:00.013Z,19.77
2023-05-08T03:18:33.906Z,19.78
2023-05-08T03:21:04.603Z,19.77
2023-05-08T03:23:35.635Z,19.71
2023-05-08T03:26:05.807Z,19.75
2023-05-08T03:28:34.030Z,19.73
2023-05-08T03:31:03.275Z,19.72
2023-05-08T03:33:33.067Z,19.72
2023-05-08T03:36:01.000Z,19.70
2023-05-08T03:38:30.924Z,19.69
2023-05-08T03:41:00.709Z,19.64
2023-05-08T03:43:30.889Z,19.65
2023-05-08T03:45:59.728Z,19.63
2023-05-08T03:48:28.542Z,19.62
2023-05-08T03:50:57.698Z,19.61
2023-05-08T03:53:25.867Z,19.61
2023-05-08T03:55:55.047Z,19.59
2023-05-08T03:58:29.972Z,19.59
2023-05-08T04:01:05.852Z,19.54
2023-05-08T04:03:53.972Z,19.49
2023-05-08T04:06:35.736Z,19.49
2023-05-08T04:09:18.774Z,19.49
2023-05-08T04:12:03.283Z,19.46
2023-05-08T04:14:36.441Z,19.42
2023-05-08T04:17:07.845Z,19.39
2023-05-08T04:19:40.863Z,19.41
2023-05-08T04:22:09.583Z,19.39
2023-05-08T04:24:43.753Z,19.42
2023-05-08T04:27:14.023Z,19.42
2023-05-08T04:29:41.946Z,19.41
2023-05-08T04:32:12.094Z,19.41
2023-05-08T04:34:39.957Z,19.44
2023-05-08T04:37:08.438Z,19.42
2023-05-08T04:39:36.827Z,19.41
2023-05-08T04:42:05.000Z,19.42
2023-05-08T04:44:34.147Z,19.40
2023-05-08T04:47:02.441Z,19.38
2023-05-08T04:49:30.209Z,19.36
2023-05-08T04:51:58.035Z,19.35
2023-05-08T04:54:26.335Z,19.33
2023-05-08T04:56:54.145Z,19.31
2023-05-08T04:59:21.917Z,19.30
2023-05-08T05:01:51.698Z,19.32
2023-05-08T05:04:19.482Z,19.28
2023-05-08T05:06:47.240Z,19.28
2023-05-08T05:09:15.531Z,19.24
2023-05-08T05:11:43.398Z,19.24
2023-05-08T05:14:11.187Z,19.23
2023-05-08T05:16:39.709Z,19.23
2023-05-08T05:19:08.904Z,19.25
2023-05-08T05:21:37.919Z,19.25
2023-05-08T05:24:06.558Z,19.27
2023-05-08T05:26:36.366Z,19.28
2023-05-08T05:29:04.674Z,19.31
2023-05-08T05:31:33.134Z,19.29
2023-05-08T05:34:01.012Z,19.29
2023-05-08T05:36:30.767Z,19.32
2023-05-08T05:38:58.773Z,19.30
2023-05-08T05:41:26.646Z,19.28
2023-05-08T05:43:54.427Z,19.30
2023-05-08T05:46:26.712Z,19.31
2023-05-08T05:48:54.607Z,19.31
2023-05-08T05:51:22.389Z,19.33
2023-05-08T05:53:52.040Z,19.37
2023-05-08T05:56:19.610Z,19.42
2023-05-08T05:58:47.404Z,19.45
2023-05-08T06:01:15.850Z,19.45
2023-05-08T06:03:44.011Z,19.47
2023-05-08T06:06:12.484Z,19.47
2023-05-08T06:08:40.913Z,19.47
2023-05-08T06:11:10.041Z,19.50
2023-05-08T06:13:40.086Z,19.50
2023-05-08T06:16:09.392Z,19.53
2023-05-08T06:18:37.152Z,19.54
2023-05-08T06:21:05.272Z,19.54
2023-05-08T06:23:33.678Z,19.55
2023-05-08T06:26:01.465Z,19.56
2023-05-08T06:28:30.684Z,19.57
2023-05-08T06:30:59.034Z,19.58
2023-05-08T06:33:27.171Z,19.59
2023-05-08T06:35:55.096Z,19.56
2023-05-08T06:38:23.486Z,19.56
2023-05-08T06:40:51.390Z,19.55
2023-05-08T06:43:19.200Z,19.53
2023-05-08T06:45:49.017Z,19.54
2023-05-08T06:48:17.047Z,19.54
2023-05-08T06:50:45.224Z,19.50
2023-05-08T06:53:13.714Z,19.52
2023-05-08T06:55:44.150Z,19.53
2023-05-08T06:58:12.203Z,19.50
2023-05-08T07:00:41.035Z,19.50
2023-05-08T07:03:10.369Z,19.51
2023-05-08T07:05:38.189Z,19.50
2023-05-08T07:08:06.514Z,19.50
2023-05-08T07:10:34.269Z,19.50
2023-05-08T07:13:02.089Z,19.50
2023-05-08T07:15:33.059Z,19.53
2023-05-08T07:18:00.889Z,19.52
2023-05-08T07:20:30.387Z,19.52
2023-05-08T07:22:58.711Z,19.50
2023-05-08T07:25:26.455Z,19.50
2023-05-08T07:27:54.269Z,19.51
2023-05-08T07:30:22.695Z,19.52
2023-05-08T07:32:50.611Z,19.52
2023-05-08T07:35:19.629Z,19.51
2023-05-08T07:37:49.145Z,19.52
2023-05-08T07:40:16.694Z,19.57
2023-05-08T07:42:45.738Z,19.58
2023-05-08T07:45:15.689Z,19.59
2023-05-08T07:47:53.634Z,19.60
2023-05-08T07:50:24.808Z,19.59
2023-05-08T07:52:54.137Z,19.58
2023-05-08T07:55:22.543Z,19.57
2023-05-08T07:57:50.946Z,19.58
2023-05-08T08:00:19.186Z,19.58
2023-05-08T08:02:47.204Z,19.60
2023-05-08T08:05:15.879Z,19.60
2023-05-08T08:07:44.077Z,19.60
2023-05-08T08:10:13.496Z,19.63
2023-05-08T08:12:41.956Z,19.65
2023-05-08T08:15:10.688Z,19.65
2023-05-08T08:17:38.732Z,19.68
2023-05-08T08:20:08.316Z,19.71
2023-05-08T08:22:36.595Z,19.78
2023-05-08T08:25:04.536Z,19.82
2023-05-08T08:27:34.522Z,19.85
2023-05-08T08:30:15.846Z,19.87
2023-05-08T08:32:45.949Z,19.90
2023-05-08T08:35:14.564Z,19.93
2023-05-08T08:37:43.021Z,19.94
2023-05-08T08:40:11.810Z,19.97
2023-05-08T08:42:40.990Z,20.00
2023-05-08T08:45:10.196Z,20.01
2023-05-08T08:47:39.864Z,19.96
2023-05-08T08:50:11.990Z,20.04
2023-05-08T08:52:44.910Z,20.06
2023-05-08T08:55:16.450Z,20.07
2023-05-08T08:57:53.569Z,20.11
2023-05-08T09:00:23.324Z,20.11
2023-05-08T09:02:51.752Z,20.13
2023-05-08T09:05:20.377Z,20.14
2023-05-08T09:07:48.751Z,20.17
2023-05-08T09:10:16.733Z,20.17
2023-05-08T09:12:46.212Z,20.19
2023-05-08T09:15:14.257Z,20.26
2023-05-08T09:17:42.376Z,20.28
2023-05-08T09:20:12.549Z,20.30
2023-05-08T09:22:41.902Z,20.32
2023-05-08T09:25:10.681Z,20.34
2023-05-08T09:27:38.632Z,20.38
2023-05-08T09:30:09.291Z,20.43
2023-05-08T09:32:39.420Z,20.44
2023-05-08T09:35:09.409Z,20.48
2023-05-08T09:37:40.573Z,20.48
2023-05-08T09:40:15.976Z,20.50
2023-05-08T09:42:44.543Z,20.53
2023-05-08T09:45:28.914Z,20.60
2023-05-08T09:47:56.846Z,20.67
2023-05-08T09:50:25.336Z,20.77
2023-05-08T09:52:53.244Z,20.86
2023-05-08T09:55:21.755Z,20.93
2023-05-08T09:57:57.876Z,20.96
2023-05-08T10:00:29.035Z,21.04
2023-05-08T10:02:59.509Z,21.08
2023-05-08T10:05:30.400Z,21.11
2023-05-08T10:07:58.462Z,21.15
2023-05-08T10:10:27.815Z,21.20
2023-05-08T10:12:58.021Z,21.25
2023-05-08T10:15:30.881Z,21.31
2023-05-08T10:18:04.759Z,21.36
2023-05-08T10:20:34.192Z,21.36
2023-05-08T10:23:03.958Z,21.40
2023-05-08T10:25:34.469Z,21.41
2023-05-08T10:28:11.106Z,21.46
2023-05-08T10:30:44.813Z,21.48
2023-05-08T10:33:17.982Z,21.49
2023-05-08T10:35:46.915Z,21.49
2023-05-08T10:38:17.575Z,21.50
2023-05-08T10:40:46.120Z,21.52
2023-05-08T10:43:14.335Z,21.52
2023-05-08T10:45:44.293Z,21.49
2023-05-08T10:48:25.379Z,21.52
2023-05-08T10:51:01.969Z,21.53
2023-05-08T10:53:36.544Z,21.54
2023-05-08T10:56:04.639Z,21.57
2023-05-08T10:58:33.504Z,21.60
2023-05-08T11:01:16.979Z,21.62
2023-05-08T11:03:46.830Z,21.66
2023-05-08T11:06:15.761Z,21.72
2023-05-08T11:08:50.022Z,21.78
2023-05-08T11:11:25.235Z,21.86
2023-05-08T11:13:57.115Z,21.90
2023-05-08T11:17:03.728Z,21.96
2023-05-08T11:19:33.444Z,21.99
2023-05-08T11:22:27.117Z,22.05
2023-05-08T11:25:03.765Z,22.09
2023-05-08T11:27:37.308Z,22.15
2023-05-08T11:30:25.512Z,22.16
2023-05-08T11:33:18.468Z,22.20
2023-05-08T11:35:58.326Z,22.15
2023-05-08T11:38:28.797Z,22.23
2023-05-08T11:40:59.436Z,22.23
2023-05-08T11:44:09.474Z,22.23
2023-05-08T11:46:42.989Z,22.20
2023-05-08T11:49:16.509Z,22.19
2023-05-08T11:51:47.860Z,22.17
2023-05-08T11:54:17.397Z,22.12
2023-05-08T11:56:47.846Z,22.13
2023-05-08T11:59:16.855Z,22.15
2023-05-08T12:01:53.566Z,22.16
2023-05-08T12:04:24.997Z,22.16
2023-05-08T12:06:58.767Z,22.19
2023-05-08T12:09:27.426Z,22.22
2023-05-08T12:11:58.956Z,22.26
2023-05-08T12:14:26.899Z,22.28
2023-05-08T12:16:55.232Z,22.31
2023-05-08T12:19:23.037Z,22.36
2023-05-08T12:21:51.400Z,22.42
2023-05-08T12:24:23.766Z,22.48
2023-05-08T12:26:56.647Z,22.56
2023-05-08T12:29:25.173Z,22.60
2023-05-08T12:31:53.743Z,22.65
2023-05-08T12:34:23.911Z,22.71
2023-05-08T12:37:03.350Z,22.74
2023-05-08T12:39:35.659Z,22.82
2023-05-08T12:42:04.200Z,22.88
2023-05-08T12:44:32.284Z,22.89
2023-05-08T12:47:00.156Z,22.90
2023-05-08T12:49:29.579Z,22.91
2023-05-08T12:52:15.200Z,22.94
2023-05-08T12:54:49.783Z,22.96
2023-05-08T12:57:19.561Z,22.92
2023-05-08T12:59:47.975Z,22.90
2023-05-08T13:02:18.987Z,22.92
2023-05-08T13:04:47.339Z,22.93
2023-05-08T13:07:15.549Z,22.92
2023-05-08T13:09:59.766Z,22.95
2023-05-08T13:12:27.619Z,22.95
2023-05-08T13:14:55.438Z,22.97
2023-05-08T13:17:23.839Z,22.99
2023-05-08T13:22:22.907Z,23.05
2023-05-08T13:24:51.232Z,23.07
2023-05-08T13:27:20.434Z,23.06
2023-05-08T13:29:48.218Z,23.08
2023-05-08T13:32:16.588Z,23.11
2023-05-08T13:34:50.720Z,23.10
2023-05-08T13:37:20.000Z,23.09
2023-05-08T13:39:47.823Z,23.12
2023-05-08T13:42:15.585Z,23.11
2023-05-08T13:44:45.154Z,23.13
2023-05-08T13:47:13.024Z,23.13
2023-05-08T13:49:40.812Z,23.13
2023-05-08T13:52:08.627Z,23.13
2023-05-08T13:54:37.708Z,23.11
2023-05-08T13:57:05.977Z,23.10
2023-05-08T13:59:34.161Z,23.08
2023-05-08T14:02:03.662Z,23.07
2023-05-08T14:04:31.248Z,23.05
2023-05-08T14:06:59.298Z,23.06
2023-05-08T14:09:27.143Z,23.03
2023-05-08T14:11:55.063Z,23.03
2023-05-08T14:14:23.061Z,23.04
2023-05-08T14:19:20.416Z,22.98
2023-05-08T14:21:48.607Z,22.99
2023-05-08T14:24:16.495Z,23.02
2023-05-08T14:26:45.015Z,23.01
2023-05-08T14:29:13.366Z,23.02
2023-05-08T14:31:41.412Z,23.04
2023-05-08T14:34:09.351Z,23.03
2023-05-08T14:36:38.876Z,23.06
2023-05-08T14:39:06.624Z,23.11
2023-05-08T14:41:34.472Z,23.11
2023-05-08T14:44:02.884Z,23.12
2023-05-08T14:46:31.266Z,23.09
2023-05-08T14:48:59.111Z,23.04
2023-05-08T14:51:27.023Z,23.04
2023-05-08T14:53:56.560Z,23.07
2023-05-08T14:56:24.909Z,22.96
2023-05-08T14:58:55.688Z,23.00
2023-05-08T15:06:22.871Z,22.98
2023-05-08T15:08:51.791Z,22.95
2023-05-08T15:13:56.077Z,22.87
2023-05-08T15:16:24.107Z,22.82
2023-05-08T15:18:52.054Z,22.80
2023-05-08T15:21:21.573Z,22.79
2023-05-08T15:23:49.828Z,22.83
2023-05-08T15:26:17.651Z,22.85
2023-05-08T15:28:46.770Z,22.82
2023-05-08T15:31:15.422Z,22.73
2023-05-08T15:33:44.930Z,22.70
2023-05-08T15:36:13.709Z,22.68
2023-05-08T15:38:42.783Z,22.66
2023-05-08T15:41:14.758Z,22.66
2023-05-08T15:43:45.643Z,22.60
2023-05-08T15:46:14.865Z,22.60
2023-05-08T15:48:42.740Z,22.53
2023-05-08T15:51:11.020Z,22.53
2023-05-08T15:53:38.862Z,22.51
2023-05-08T15:56:06.954Z,22.46
2023-05-08T15:58:36.805Z,22.45
2023-05-08T16:01:05.387Z,22.36
2023-05-08T16:03:34.747Z,22.36
2023-05-08T16:06:02.517Z,22.36
2023-05-08T16:08:30.815Z,22.34
2023-05-08T16:10:58.597Z,22.32
2023-05-08T16:13:27.117Z,22.28
2023-05-08T16:15:55.253Z,22.26
2023-05-08T16:18:23.053Z,22.19
2023-05-08T16:20:52.796Z,22.10
2023-05-08T16:23:20.569Z,22.09
2023-05-08T16:25:48.373Z,21.93
2023-05-08T16:28:16.207Z,21.99
2023-05-08T16:30:44.026Z,21.99
2023-05-08T16:33:12.538Z,21.98
2023-05-08T16:35:41.426Z,21.96
2023-05-08T16:38:10.952Z,21.97
2023-05-08T16:40:38.495Z,22.00
2023-05-08T16:43:08.822Z,22.02
2023-05-08T16:45:36.753Z,21.98
2023-05-08T16:48:05.180Z,21.98
2023-05-08T16:50:33.636Z,21.97
2023-05-08T16:53:02.146Z,21.96
2023-05-08T16:55:31.304Z,21.91
2023-05-08T16:57:59.642Z,21.91
2023-05-08T17:00:27.583Z,21.89
2023-05-08T17:02:55.423Z,21.88
2023-05-08T17:05:24.177Z,21.89
2023-05-08T17:07:52.035Z,21.87
2023-05-08T17:10:19.820Z,21.85
2023-05-08T17:12:50.882Z,21.84
2023-05-08T17:15:19.560Z,21.82
2023-05-08T17:17:47.686Z,21.79
2023-05-08T17:20:16.625Z,21.78
2023-05-08T17:22:44.466Z,21.77
2023-05-08T17:25:12.257Z,21.77
2023-05-08T17:27:40.472Z,21.76
2023-05-08T17:30:12.190Z,21.75
2023-05-08T17:32:40.384Z,21.70
2023-05-08T17:35:10.166Z,21.65
2023-05-08T17:37:38.043Z,21.65
2023-05-08T17:40:06.806Z,21.62
2023-05-08T17:42:35.958Z,21.62
2023-05-08T17:45:04.953Z,21.61
2023-05-08T17:47:34.147Z,21.61
2023-05-08T17:50:02.552Z,21.60
2023-05-08T17:52:30.352Z,21.61
2023-05-08T17:54:58.334Z,21.58
2023-05-08T17:57:26.482Z,21.58
2023-05-08T17:59:54.280Z,21.56
2023-05-08T18:02:22.075Z,21.56
2023-05-08T18:04:51.747Z,21.57
2023-05-08T18:07:19.611Z,21.58
2023-05-08T18:09:47.374Z,21.60
2023-05-08T18:12:15.573Z,21.60
2023-05-08T18:14:44.422Z,21.62
2023-05-08T18:17:15.399Z,21.63
2023-05-08T18:19:43.736Z,21.63
2023-05-08T18:22:12.912Z,21.63
2023-05-08T18:24:40.724Z,21.62
2023-05-08T18:27:09.208Z,21.60
2023-05-08T18:29:36.974Z,21.58
2023-05-08T18:32:05.167Z,21.56
2023-05-08T18:34:32.983Z,21.55
2023-05-08T18:37:00.762Z,21.50
2023-05-08T18:39:29.929Z,21.48
2023-05-08T18:41:58.234Z,21.45
2023-05-08T18:44:26.045Z,21.41
2023-05-08T18:46:53.797Z,21.36
2023-05-08T18:49:22.193Z,21.33
2023-05-08T18:51:49.982Z,21.29
2023-05-08T18:54:17.757Z,21.25
2023-05-08T18:56:47.205Z,21.23
2023-05-08T18:59:14.977Z,21.20
2023-05-08T19:01:42.751Z,21.17
2023-05-08T19:04:10.676Z,21.14
2023-05-08T19:06:38.585Z,21.10
2023-05-08T19:09:06.412Z,21.10
2023-05-08T19:11:34.543Z,21.06
2023-05-08T19:14:04.016Z,21.07
2023-05-08T19:16:31.956Z,21.05
2023-05-08T19:19:00.034Z,21.00
2023-05-08T19:21:27.843Z,21.01
2023-05-08T19:23:55.635Z,20.98
2023-05-08T19:26:23.713Z,20.94
2023-05-08T19:28:51.469Z,20.91
2023-05-08T19:31:20.730Z,20.91
2023-05-08T19:33:49.900Z,20.91
2023-05-08T19:36:18.348Z,20.90
2023-05-08T19:38:46.129Z,20.90
2023-05-08T19:41:14.118Z,20.91
2023-05-08T19:43:41.888Z,20.91
2023-05-08T19:46:09.692Z,20.90
2023-05-08T19:48:40.052Z,20.91
2023-05-08T19:51:08.068Z,20.89
2023-05-08T19:53:35.923Z,20.89
2023-05-08T19:56:03.978Z,20.86
2023-05-08T19:58:31.773Z,20.85
2023-05-08T20:00:59.761Z,20.85
2023-05-08T20:03:28.106Z,20.85
2023-05-08T20:05:57.376Z,20.86
2023-05-08T20:08:25.285Z,20.84
2023-05-08T20:10:53.095Z,20.86
2023-05-08T20:13:21.087Z,20.87
2023-05-08T20:15:49.281Z,20.88
2023-05-08T20:18:17.127Z,20.89
2023-05-08T20:20:46.120Z,20.88
2023-05-08T20:23:15.256Z,20.89
2023-05-08T20:25:46.167Z,20.88
2023-05-08T20:28:13.928Z,20.88
2023-05-08T20:30:41.746Z,20.88
2023-05-08T20:33:09.641Z,20.86
2023-05-08T20:35:37.447Z,20.86
2023-05-08T20:38:05.451Z,20.84
2023-05-08T20:40:35.392Z,20.85
2023-05-08T20:43:03.351Z,20.83
2023-05-08T20:45:31.283Z,20.81
2023-05-08T20:47:59.827Z,20.80
2023-05-08T20:50:27.724Z,20.78
2023-05-08T20:52:55.896Z,20.77
2023-05-08T20:55:24.354Z,20.75
2023-05-08T20:57:53.598Z,20.76
2023-05-08T21:00:22.472Z,20.68
2023-05-08T21:02:50.481Z,20.72
2023-05-08T21:05:18.974Z,20.70
2023-05-08T21:07:46.752Z,20.69
2023-05-08T21:10:16.717Z,20.65
2023-05-08T21:12:45.531Z,20.66
2023-05-08T21:15:15.128Z,20.64
2023-05-08T21:17:43.408Z,20.62
2023-05-08T21:20:12.543Z,20.61
2023-05-08T21:22:40.639Z,20.61
2023-05-08T21:25:12.582Z,20.58
2023-05-08T21:27:42.539Z,20.57
2023-05-08T21:30:15.642Z,20.55
2023-05-08T21:32:45.840Z,20.56
2023-05-08T21:35:14.411Z,20.54
2023-05-08T21:37:42.645Z,20.51
2023-05-08T21:40:10.842Z,20.50
2023-05-08T21:42:40.292Z,20.50
2023-05-08T21:45:08.873Z,20.44
2023-05-08T21:47:36.657Z,20.43
2023-05-08T21:50:07.166Z,20.43
2023-05-08T21:52:35.845Z,20.39
2023-05-08T21:55:08.358Z,20.38
2023-05-08T21:57:36.630Z,20.37
2023-05-08T22:00:05.458Z,20.35
2023-05-08T22:02:33.340Z,20.34
2023-05-08T22:05:01.550Z,20.27
2023-05-08T22:07:30.821Z,20.31
2023-05-08T22:09:58.602Z,20.29
2023-05-08T22:12:26.715Z,20.28
2023-05-08T22:14:54.484Z,20.27
2023-05-08T22:17:22.204Z,20.26
2023-05-08T22:19:49.962Z,20.24
2023-05-08T22:22:17.693Z,20.22
2023-05-08T22:24:46.813Z,20.22
2023-05-08T22:27:14.782Z,20.20
2023-05-08T22:29:42.485Z,20.18
2023-05-08T22:32:10.367Z,20.17
2023-05-08T22:34:38.281Z,20.15
2023-05-08T22:37:06.222Z,20.15
2023-05-08T22:39:34.021Z,20.13
2023-05-08T22:42:03.664Z,20.13
2023-05-08T22:44:31.499Z,20.16
2023-05-08T22:46:59.509Z,20.13
2023-05-08T22:49:27.649Z,20.10
2023-05-08T22:51:55.841Z,20.07
2023-05-08T22:54:23.686Z,20.05
2023-05-08T22:56:51.736Z,20.02
2023-05-08T22:59:20.877Z,20.01
2023-05-08T23:01:48.625Z,19.99
2023-05-08T23:04:16.671Z,19.97
2023-05-08T23:06:44.423Z,19.96
2023-05-08T23:09:12.436Z,19.94
2023-05-08T23:11:40.823Z,19.92
2023-05-08T23:14:08.589Z,19.91
2023-05-08T23:16:37.907Z,19.90
2023-05-08T23:19:07.591Z,19.87
2023-05-08T23:21:35.375Z,19.86
2023-05-08T23:24:03.173Z,19.85
2023-05-08T23:26:31.293Z,19.83
2023-05-08T23:28:59.106Z,19.82
2023-05-08T23:31:27.046Z,19.81
2023-05-08T23:33:56.537Z,19.82
2023-05-08T23:36:24.617Z,19.80
2023-05-08T23:38:52.593Z,19.79
2023-05-08T23:41:20.589Z,19.78
2023-05-08T23:43:48.659Z,19.77
2023-05-08T23:46:16.740Z,19.76
2023-05-08T23:48:45.155Z,19.75
2023-05-08T23:51:14.360Z,19.73
2023-05-08T23:53:42.256Z,19.72
2023-05-08T23:56:10.980Z,19.72
2023-05-08T23:58:38.902Z,19.70
